Time;durP1;ratioP1;P1;durP2;ratioP2;P2;SDS_P1;SDS_P2;PMS_P1;PMS_P2;Temp;Humidity;BMP_temperature;BMP_pressure;BME280_temperature;BME280_humidity;BME280_pressure;Samples;Min_cycle;Max_cycle;Signal;HPM_P1;HPM_P2
2022/04/09 00:00:17;;;;;;;17.83;3.97;;;3.70;99.90;;;;;;5072786;28;20368;-69
2022/04/09 00:02:43;;;;;;;15.30;4.25;;;3.70;99.90;;;;;;5071635;28;20017;-68
2022/04/09 00:05:11;;;;;;;16.70;4.07;;;3.70;99.90;;;;;;5071508;28;20021;-69
2022/04/09 00:07:37;;;;;;;9.00;3.90;;;3.60;99.90;;;;;;5071478;28;20454;-69
2022/04/09 00:10:05;;;;;;;13.50;4.45;;;3.60;99.90;;;;;;5072734;28;20039;-68
2022/04/09 00:12:31;;;;;;;17.52;4.50;;;3.60;99.90;;;;;;5072760;28;20031;-69
2022/04/09 00:14:56;;;;;;;9.70;3.58;;;3.60;99.90;;;;;;5071476;28;20032;-68
2022/04/09 00:17:22;;;;;;;19.95;4.40;;;3.60;99.90;;;;;;5072725;28;20421;-69
2022/04/09 00:19:48;;;;;;;12.50;3.90;;;3.60;99.90;;;;;;5073234;28;20036;-69
2022/04/09 00:22:14;;;;;;;15.13;3.60;;;3.50;99.90;;;;;;5076369;28;20051;-69
2022/04/09 00:24:40;;;;;;;13.45;3.22;;;3.50;99.90;;;;;;5076410;28;20020;-69
2022/04/09 00:27:05;;;;;;;16.25;3.88;;;3.50;99.90;;;;;;5075191;28;20032;-69
2022/04/09 00:29:31;;;;;;;16.85;4.22;;;3.50;99.90;;;;;;5076397;28;20016;-69
2022/04/09 00:31:56;;;;;;;14.32;4.05;;;3.50;99.90;;;;;;5076232;28;20028;-68
2022/04/09 00:34:22;;;;;;;16.33;3.75;;;3.50;99.90;;;;;;5076224;28;20471;-68
2022/04/09 00:36:47;;;;;;;17.75;3.75;;;3.50;99.90;;;;;;5076191;28;20031;-68
2022/04/09 00:39:13;;;;;;;15.93;3.60;;;3.40;99.90;;;;;;5076163;28;20103;-67
2022/04/09 00:41:40;;;;;;;14.65;3.97;;;3.40;99.90;;;;;;5076081;28;20032;-67
2022/04/09 00:44:21;;;;;;;16.52;4.07;;;3.50;99.90;;;;;;5076091;28;20020;-68
2022/04/09 00:46:47;;;;;;;23.35;4.50;;;3.50;99.90;;;;;;5076017;28;20031;-68
2022/04/09 00:49:14;;;;;;;19.70;4.30;;;3.60;99.90;;;;;;5074772;28;20040;-68
2022/04/09 00:51:41;;;;;;;19.02;3.90;;;3.60;99.90;;;;;;5074628;28;20025;-67
2022/04/09 00:54:11;;;;;;;15.77;3.72;;;3.50;99.90;;;;;;5075927;28;20387;-68
2022/04/09 00:56:38;;;;;;;16.52;4.10;;;3.50;99.90;;;;;;5075896;28;20035;-67
2022/04/09 00:59:06;;;;;;;18.38;3.90;;;3.40;99.90;;;;;;5074697;28;20545;-67
2022/04/09 01:01:34;;;;;;;12.82;3.60;;;3.40;99.90;;;;;;5075777;28;20387;-67
2022/04/09 01:04:06;;;;;;;16.83;4.38;;;3.40;99.90;;;;;;5075918;28;20021;-67
2022/04/09 01:06:33;;;;;;;21.48;4.55;;;3.40;99.90;;;;;;5057844;28;20020;-67
2022/04/09 01:08:58;;;;;;;21.60;4.35;;;3.30;99.90;;;;;;5075650;28;20012;-68
2022/04/09 01:11:24;;;;;;;16.30;4.10;;;3.30;99.90;;;;;;5075540;28;20033;-68
2022/04/09 01:13:51;;;;;;;13.88;3.67;;;3.30;99.90;;;;;;5074354;28;20024;-68
2022/04/09 01:16:16;;;;;;;14.48;4.50;;;3.20;99.90;;;;;;5074240;28;20117;-68
2022/04/09 01:18:42;;;;;;;20.40;4.75;;;3.20;99.90;;;;;;5075430;28;20478;-68
2022/04/09 01:21:08;;;;;;;18.17;4.05;;;3.20;99.90;;;;;;5074186;28;20119;-68
2022/04/09 01:23:34;;;;;;;15.15;4.13;;;3.10;99.90;;;;;;5075378;28;20390;-68
2022/04/09 01:26:02;;;;;;;16.98;4.65;;;3.10;99.90;;;;;;5074123;28;20053;-68
2022/04/09 01:28:28;;;;;;;13.73;4.13;;;3.10;99.90;;;;;;5075233;28;20392;-68
2022/04/09 01:30:54;;;;;;;13.00;4.00;;;3.20;99.90;;;;;;5074748;28;20024;-68
2022/04/09 01:33:21;;;;;;;14.73;4.15;;;3.20;99.90;;;;;;5075182;28;20387;-68
2022/04/09 01:35:48;;;;;;;13.23;3.97;;;3.10;99.90;;;;;;5073834;28;20025;-67
2022/04/09 01:38:14;;;;;;;14.95;4.05;;;3.20;99.90;;;;;;5075104;28;20025;-68
2022/04/09 01:40:40;;;;;;;16.42;4.32;;;3.30;99.90;;;;;;5074946;28;20372;-68
2022/04/09 01:43:06;;;;;;;19.65;4.78;;;3.40;99.90;;;;;;5075000;28;20020;-68
2022/04/09 01:45:31;;;;;;;15.55;3.80;;;3.50;99.90;;;;;;5074877;28;20150;-68
2022/04/09 01:47:58;;;;;;;18.85;4.47;;;3.50;99.90;;;;;;5074847;28;20024;-68
2022/04/09 01:50:27;;;;;;;19.00;4.45;;;3.60;99.90;;;;;;5074765;28;20016;-68
2022/04/09 01:52:53;;;;;;;15.75;3.97;;;3.60;99.90;;;;;;5073594;28;20013;-68
2022/04/09 01:55:19;;;;;;;14.40;4.03;;;3.60;99.90;;;;;;5073358;28;20410;-68
2022/04/09 01:57:45;;;;;;;14.70;3.63;;;3.70;99.90;;;;;;5074686;28;20024;-68
2022/04/09 02:00:12;;;;;;;18.95;4.07;;;3.70;99.90;;;;;;5074599;28;20025;-68
2022/04/09 02:02:38;;;;;;;9.00;3.97;;;3.70;99.90;;;;;;5074527;28;20074;-68
2022/04/09 02:05:04;;;;;;;16.95;4.45;;;3.80;99.90;;;;;;5073385;28;20424;-68
2022/04/09 02:07:30;;;;;;;14.45;4.20;;;3.90;99.90;;;;;;5073278;28;20385;-68
2022/04/09 02:09:56;;;;;;;16.25;4.18;;;4.00;99.90;;;;;;5074374;28;20025;-68
2022/04/09 02:12:21;;;;;;;13.57;4.07;;;4.00;99.90;;;;;;5074273;28;20032;-68
2022/04/09 02:14:47;;;;;;;16.08;4.10;;;4.10;99.90;;;;;;5072951;28;20029;-68
2022/04/09 02:17:13;;;;;;;19.30;4.53;;;4.20;99.90;;;;;;5074294;28;20029;-68
2022/04/09 02:19:39;;;;;;;26.42;4.18;;;4.20;99.90;;;;;;5074092;28;20041;-68
2022/04/09 02:22:05;;;;;;;28.98;5.68;;;4.20;99.90;;;;;;5073005;28;20036;-68
2022/04/09 02:24:31;;;;;;;21.63;4.53;;;4.10;99.90;;;;;;5074065;28;20478;-68
2022/04/09 02:26:56;;;;;;;24.70;4.57;;;4.10;99.90;;;;;;5074073;28;20035;-68
2022/04/09 02:29:22;;;;;;;21.98;4.53;;;4.10;99.90;;;;;;5072762;28;20028;-68
2022/04/09 02:31:48;;;;;;;18.08;4.13;;;4.10;99.90;;;;;;5073949;28;20103;-68
2022/04/09 02:34:13;;;;;;;12.65;4.07;;;4.20;99.90;;;;;;5073977;28;20025;-68
2022/04/09 02:36:39;;;;;;;24.27;4.95;;;4.20;99.90;;;;;;5073961;28;20432;-68
2022/04/09 02:39:05;;;;;;;27.15;4.68;;;4.20;99.90;;;;;;5073882;28;20108;-67
2022/04/09 02:41:31;;;;;;;20.67;4.97;;;4.20;99.90;;;;;;5071850;28;20471;-68
2022/04/09 02:43:57;;;;;;;19.10;4.35;;;4.30;99.90;;;;;;5072442;28;20017;-68
2022/04/09 02:46:23;;;;;;;19.60;4.30;;;4.30;99.90;;;;;;5073723;28;20016;-68
2022/04/09 02:48:49;;;;;;;24.45;5.82;;;4.30;99.90;;;;;;5072363;28;20028;-67
2022/04/09 02:51:15;;;;;;;16.48;4.15;;;4.30;99.90;;;;;;5072393;28;20081;-68
2022/04/09 02:53:40;;;;;;;18.35;3.67;;;4.30;99.90;;;;;;5072442;28;20107;-67
2022/04/09 02:56:06;;;;;;;18.25;4.68;;;4.40;99.90;;;;;;5073654;28;20024;-68
2022/04/09 02:58:31;;;;;;;13.40;4.38;;;4.40;99.90;;;;;;5073523;28;20024;-68
2022/04/09 03:00:57;;;;;;;22.73;5.25;;;4.40;99.90;;;;;;5073450;28;20558;-68
2022/04/09 03:03:22;;;;;;;18.23;4.10;;;4.40;99.90;;;;;;5072197;28;20025;-68
2022/04/09 03:05:48;;;;;;;19.73;4.78;;;4.40;99.90;;;;;;5072310;28;20055;-67
2022/04/09 03:08:14;;;;;;;22.67;4.22;;;4.40;99.90;;;;;;5072214;28;20400;-67
2022/04/09 03:10:39;;;;;;;19.33;4.28;;;4.40;99.90;;;;;;5055372;28;20028;-68
2022/04/09 03:13:05;;;;;;;21.80;5.65;;;4.40;99.90;;;;;;5072161;28;20035;-68
2022/04/09 03:15:31;;;;;;;19.48;4.57;;;4.40;99.90;;;;;;5073309;28;20064;-68
2022/04/09 03:17:56;;;;;;;18.40;5.35;;;4.30;99.90;;;;;;5072141;28;20020;-68
2022/04/09 03:20:22;;;;;;;19.75;4.63;;;4.30;99.90;;;;;;5071752;28;20139;-67
2022/04/09 03:22:49;;;;;;;15.32;4.95;;;4.30;99.90;;;;;;5073212;28;20029;-67
2022/04/09 03:25:15;;;;;;;19.77;5.07;;;4.30;99.90;;;;;;5071953;28;20111;-67
2022/04/09 03:27:42;;;;;;;36.97;6.13;;;4.30;99.90;;;;;;5071998;28;20066;-67
2022/04/09 03:30:09;;;;;;;19.92;5.93;;;4.30;99.90;;;;;;5073278;28;20103;-68
2022/04/09 03:32:36;;;;;;;18.95;5.20;;;4.30;99.90;;;;;;5071979;28;20020;-68
2022/04/09 03:35:03;;;;;;;20.90;5.25;;;4.30;99.90;;;;;;5073071;28;20047;-67
2022/04/09 03:37:29;;;;;;;22.38;5.28;;;4.40;99.90;;;;;;5073017;28;20471;-68
2022/04/09 03:39:54;;;;;;;21.45;5.38;;;4.40;99.90;;;;;;5073090;28;20028;-68
2022/04/09 03:42:20;;;;;;;21.38;5.70;;;4.30;99.90;;;;;;5071770;28;20043;-68
2022/04/09 03:44:45;;;;;;;22.00;4.95;;;4.30;99.90;;;;;;5071711;28;20382;-68
2022/04/09 03:47:11;;;;;;;24.33;4.80;;;4.30;99.90;;;;;;5073059;28;20025;-68
2022/04/09 03:49:38;;;;;;;18.45;5.57;;;4.30;99.90;;;;;;5073008;28;20386;-68
2022/04/09 03:52:04;;;;;;;19.92;5.60;;;4.30;99.90;;;;;;5071871;28;20099;-68
2022/04/09 03:54:32;;;;;;;27.50;5.75;;;4.30;99.90;;;;;;5076128;28;20064;-67
2022/04/09 03:56:58;;;;;;;28.23;5.45;;;4.30;99.90;;;;;;5076945;28;20032;-68
2022/04/09 03:59:23;;;;;;;21.67;5.25;;;4.20;99.90;;;;;;5076866;28;20028;-68
2022/04/09 04:01:50;;;;;;;17.30;4.72;;;4.20;99.90;;;;;;5076723;28;20028;-68
2022/04/09 04:04:15;;;;;;;11.88;4.20;;;4.20;99.90;;;;;;5076837;28;20058;-68
2022/04/09 04:06:42;;;;;;;23.85;5.15;;;4.30;99.90;;;;;;5075587;28;20421;-68
2022/04/09 04:09:07;;;;;;;24.98;5.35;;;4.20;99.90;;;;;;5076823;28;20017;-68
2022/04/09 04:11:33;;;;;;;19.85;4.72;;;4.20;99.90;;;;;;5075405;28;20033;-68
2022/04/09 04:13:59;;;;;;;21.08;5.78;;;4.10;99.90;;;;;;5058786;28;20024;-68
2022/04/09 04:16:24;;;;;;;21.10;5.18;;;4.10;99.90;;;;;;5076563;28;20035;-67
2022/04/09 04:18:50;;;;;;;20.95;5.85;;;4.10;99.90;;;;;;5076396;28;20035;-68
2022/04/09 04:21:16;;;;;;;26.05;6.75;;;4.10;99.90;;;;;;5076444;28;20033;-67
2022/04/09 04:23:41;;;;;;;19.85;5.25;;;4.20;99.90;;;;;;5076511;28;20016;-68
2022/04/09 04:26:07;;;;;;;21.15;6.38;;;4.20;99.90;;;;;;5076396;28;20039;-68
2022/04/09 04:28:32;;;;;;;24.17;7.38;;;4.20;99.90;;;;;;5076316;28;20048;-67
2022/04/09 04:30:58;;;;;;;26.13;7.18;;;4.20;99.90;;;;;;5075141;28;20107;-67
2022/04/09 04:33:23;;;;;;;23.55;6.47;;;4.20;99.90;;;;;;5075096;28;20028;-68
2022/04/09 04:35:49;;;;;;;31.88;6.03;;;4.20;99.90;;;;;;5075312;28;20531;-68
2022/04/09 04:38:14;;;;;;;26.00;6.85;;;4.20;99.90;;;;;;5076234;28;20107;-67
2022/04/09 04:40:40;;;;;;;19.33;5.75;;;4.20;99.90;;;;;;5076084;28;20036;-68
2022/04/09 04:43:06;;;;;;;21.70;6.40;;;4.10;99.90;;;;;;5074963;28;20020;-68
2022/04/09 04:45:32;;;;;;;21.17;6.28;;;4.20;99.90;;;;;;5074878;28;20078;-68
2022/04/09 04:47:58;;;;;;;27.73;6.45;;;4.20;99.90;;;;;;5074744;28;20398;-68
2022/04/09 04:50:25;;;;;;;19.75;5.68;;;4.20;99.90;;;;;;5074759;28;20474;-68
2022/04/09 04:52:50;;;;;;;25.60;6.22;;;4.20;99.90;;;;;;5057966;28;20021;-68
2022/04/09 04:55:17;;;;;;;21.75;6.05;;;4.20;99.90;;;;;;5075925;28;20052;-67
2022/04/09 04:57:47;;;;;;;16.83;5.28;;;4.20;99.90;;;;;;5075890;28;20454;-68
2022/04/09 05:00:16;;;;;;;15.13;5.80;;;4.10;99.90;;;;;;5074468;28;20368;-68
2022/04/09 05:02:42;;;;;;;25.13;5.22;;;4.10;99.90;;;;;;5075638;28;20115;-68
2022/04/09 05:05:08;;;;;;;23.15;5.45;;;4.10;99.90;;;;;;5074969;28;20063;-68
2022/04/09 05:07:45;;;;;;;25.25;5.78;;;4.00;99.90;;;;;;5074461;28;20017;-68
2022/04/09 05:10:13;;;;;;;18.73;4.78;;;3.90;99.90;;;;;;5075669;28;20390;-68
2022/04/09 05:12:40;;;;;;;22.80;5.47;;;3.90;99.90;;;;;;5075637;28;20025;-68
2022/04/09 05:15:07;;;;;;;24.10;5.40;;;3.90;99.90;;;;;;5075528;28;20028;-68
2022/04/09 05:17:33;;;;;;;22.23;5.22;;;3.90;99.90;;;;;;5074285;28;20031;-68
2022/04/09 05:20:01;;;;;;;21.90;5.43;;;3.90;99.90;;;;;;5075241;28;20052;-68
2022/04/09 05:22:27;;;;;;;41.00;15.15;;;3.90;99.90;;;;;;5074008;28;20029;-68
2022/04/09 05:24:54;;;;;;;32.80;13.35;;;3.90;99.90;;;;;;5075340;28;20025;-68
2022/04/09 05:27:20;;;;;;;38.20;16.40;;;3.80;99.90;;;;;;5075259;28;20024;-68
2022/04/09 05:29:45;;;;;;;80.78;34.40;;;3.80;99.90;;;;;;5075281;28;20020;-68
2022/04/09 05:32:11;;;;;;;56.83;24.98;;;3.80;99.90;;;;;;5074104;28;20032;-68
2022/04/09 05:34:36;;;;;;;89.25;40.53;;;4.00;99.90;;;;;;5073959;28;20075;-68
2022/04/09 05:37:02;;;;;;;35.22;15.73;;;4.00;99.90;;;;;;5075061;28;20103;-68
2022/04/09 05:39:27;;;;;;;55.33;24.95;;;4.10;99.90;;;;;;5073897;28;20031;-68
2022/04/09 05:41:53;;;;;;;45.67;20.38;;;4.20;99.90;;;;;;5074949;28;20040;-68
2022/04/09 05:44:18;;;;;;;42.28;16.48;;;4.40;99.90;;;;;;5074983;28;20029;-68
2022/04/09 05:46:44;;;;;;;45.88;20.00;;;4.40;99.90;;;;;;5074946;28;20086;-68
2022/04/09 05:49:09;;;;;;;37.20;18.48;;;4.50;99.90;;;;;;5073543;28;20024;-68
2022/04/09 05:51:36;;;;;;;77.75;31.10;;;4.60;99.90;;;;;;5073722;28;20020;-68
2022/04/09 05:54:02;;;;;;;170.30;70.32;;;4.70;99.90;;;;;;5074792;28;20094;-68
2022/04/09 05:56:28;;;;;;;39.95;17.20;;;5.40;99.90;;;;;;5073542;28;20074;-68
2022/04/09 05:58:53;;;;;;;19.13;5.90;;;6.00;99.90;;;;;;5056647;28;20032;-68
2022/04/09 06:01:19;;;;;;;13.35;4.75;;;5.80;99.90;;;;;;5074449;28;20029;-68
2022/04/09 06:03:44;;;;;;;13.10;3.67;;;5.40;99.90;;;;;;5074615;28;20471;-68
2022/04/09 06:06:11;;;;;;;13.13;3.05;;;5.40;99.90;;;;;;5074468;28;20025;-68
2022/04/09 06:08:37;;;;;;;10.65;3.28;;;5.40;99.90;;;;;;5056525;28;20420;-68
2022/04/09 06:11:03;;;;;;;17.05;3.75;;;5.20;99.90;;;;;;5073137;28;20024;-68
2022/04/09 06:13:29;;;;;;;17.00;3.72;;;6.20;99.90;;;;;;5074335;28;20028;-68
2022/04/09 06:15:54;;;;;;;11.27;3.60;;;7.10;99.90;;;;;;5074269;28;20020;-68
2022/04/09 06:18:20;;;;;;;10.38;3.45;;;7.80;99.90;;;;;;5072946;28;20025;-68
2022/04/09 06:20:46;;;;;;;11.48;3.13;;;8.40;99.90;;;;;;5073853;28;20079;-69
2022/04/09 06:23:12;;;;;;;13.52;3.50;;;8.10;99.90;;;;;;5074108;28;20487;-68
2022/04/09 06:25:37;;;;;;;11.77;3.50;;;8.00;99.90;;;;;;5074122;28;20024;-69
2022/04/09 06:28:03;;;;;;;51.97;25.65;;;8.30;99.90;;;;;;5074047;28;20035;-68
2022/04/09 06:30:29;;;;;;;198.38;71.28;;;8.30;99.90;;;;;;5074018;28;20017;-68
2022/04/09 06:32:55;;;;;;;206.45;88.60;;;8.40;99.90;;;;;;5072765;28;20052;-68
2022/04/09 06:35:21;;;;;;;107.18;47.00;;;8.60;99.90;;;;;;5073657;28;20031;-69
2022/04/09 06:37:47;;;;;;;38.72;18.75;;;8.00;99.90;;;;;;5073940;28;20024;-68
2022/04/09 06:40:13;;;;;;;19.35;10.48;;;6.80;99.90;;;;;;5072986;28;20390;-68
2022/04/09 06:42:39;;;;;;;44.30;22.55;;;6.30;99.90;;;;;;5073793;28;20024;-68
2022/04/09 06:45:08;;;;;;;18.17;5.22;;;6.20;99.90;;;;;;5072488;28;20021;-68
2022/04/09 06:47:37;;;;;;;18.67;4.45;;;5.90;99.90;;;;;;5072535;28;20114;-69
2022/04/09 06:50:08;;;;;;;15.57;4.35;;;5.80;99.90;;;;;;5073593;28;20027;-68
2022/04/09 06:52:34;;;;;;;16.10;4.93;;;5.80;99.90;;;;;;5072308;28;20029;-69
2022/04/09 06:54:59;;;;;;;19.42;4.38;;;5.90;99.90;;;;;;5073642;28;20111;-69
2022/04/09 06:57:25;;;;;;;17.48;4.30;;;6.00;99.90;;;;;;5072382;28;20040;-69
2022/04/09 06:59:50;;;;;;;18.33;5.55;;;6.20;99.90;;;;;;5073519;28;20028;-69
2022/04/09 07:02:16;;;;;;;10.80;4.22;;;6.30;99.90;;;;;;5073469;28;20066;-69
2022/04/09 07:04:41;;;;;;;19.70;4.15;;;6.40;99.90;;;;;;5072283;28;20052;-69
2022/04/09 07:07:07;;;;;;;16.42;4.15;;;6.20;99.90;;;;;;5072312;28;20099;-69
2022/04/09 07:09:32;;;;;;;16.90;4.20;;;6.20;99.90;;;;;;5073394;28;20034;-68
2022/04/09 07:11:58;;;;;;;13.50;4.68;;;6.70;99.90;;;;;;5055686;28;20029;-69
2022/04/09 07:14:23;;;;;;;26.42;4.05;;;7.00;99.90;;;;;;5071979;28;20063;-69
2022/04/09 07:16:49;;;;;;;18.83;4.22;;;6.90;99.90;;;;;;5073184;28;20039;-68
2022/04/09 07:19:14;;;;;;;79.75;41.75;;;6.70;99.90;;;;;;5071765;28;20047;-69
2022/04/09 07:21:40;;;;;;;76.55;24.85;;;6.70;99.90;;;;;;5071920;28;20530;-69
2022/04/09 07:24:06;;;;;;;217.88;76.78;;;6.50;99.90;;;;;;5071919;28;20095;-68
2022/04/09 07:26:31;;;;;;;142.95;53.33;;;6.40;99.90;;;;;;5072005;28;20028;-69
2022/04/09 07:28:57;;;;;;;99.15;40.30;;;6.20;99.90;;;;;;5072777;28;20021;-69
2022/04/09 07:31:22;;;;;;;63.15;28.10;;;6.20;99.90;;;;;;5073084;28;20040;-69
2022/04/09 07:33:48;;;;;;;55.75;26.27;;;6.20;99.90;;;;;;5073140;28;20051;-69
2022/04/09 07:36:13;;;;;;;28.85;13.68;;;6.20;99.90;;;;;;5073142;28;20115;-69
2022/04/09 07:38:39;;;;;;;21.50;9.80;;;6.30;99.90;;;;;;5073215;28;20051;-68
2022/04/09 07:41:05;;;;;;;22.42;5.43;;;6.40;99.90;;;;;;5072904;28;20028;-69
2022/04/09 07:43:30;;;;;;;15.85;4.80;;;6.70;99.90;;;;;;5071777;28;20499;-69
2022/04/09 07:45:56;;;;;;;16.88;4.68;;;6.80;99.90;;;;;;5072989;28;20036;-69
2022/04/09 07:48:22;;;;;;;15.90;4.55;;;6.90;99.90;;;;;;5073015;28;20471;-69
2022/04/09 07:50:47;;;;;;;22.98;4.82;;;6.80;99.90;;;;;;5071775;28;20028;-69
2022/04/09 07:53:13;;;;;;;14.45;4.22;;;6.90;99.90;;;;;;5071752;28;20074;-69
2022/04/09 07:55:39;;;;;;;16.55;3.78;;;6.80;99.90;;;;;;5071681;28;20116;-69
2022/04/09 07:58:06;;;;;;;17.55;3.60;;;6.90;99.90;;;;;;5072799;28;20532;-69
2022/04/09 08:00:32;;;;;;;13.27;4.20;;;7.60;99.90;;;;;;5071647;28;20057;-69
2022/04/09 08:02:58;;;;;;;8.80;3.38;;;8.70;99.90;;;;;;5071566;28;20021;-69
2022/04/09 08:05:24;;;;;;;12.52;3.70;;;8.50;99.90;;;;;;5071615;28;20028;-69
2022/04/09 08:07:49;;;;;;;6.90;3.17;;;8.40;99.90;;;;;;5072814;28;20436;-69
2022/04/09 08:10:15;;;;;;;18.40;3.67;;;8.30;99.90;;;;;;5072798;28;20390;-69
2022/04/09 08:12:42;;;;;;;13.05;3.88;;;8.60;99.90;;;;;;5071463;28;20032;-69
2022/04/09 08:15:09;;;;;;;17.38;3.80;;;8.80;99.90;;;;;;5072835;28;20495;-68
2022/04/09 08:17:38;;;;;;;13.88;3.53;;;8.40;99.90;;;;;;5072650;28;20025;-68
2022/04/09 08:20:14;;;;;;;9.88;3.00;;;8.80;99.90;;;;;;5072450;28;20154;-69
2022/04/09 08:22:41;;;;;;;11.68;3.20;;;9.00;99.90;;;;;;5071487;28;20025;-68
2022/04/09 08:25:07;;;;;;;10.35;3.40;;;9.30;99.90;;;;;;5071533;28;20090;-68
2022/04/09 08:27:33;;;;;;;13.18;3.10;;;9.70;99.90;;;;;;5072592;28;20020;-68
2022/04/09 08:29:59;;;;;;;15.10;3.08;;;9.50;99.90;;;;;;5072526;28;20471;-68
2022/04/09 08:32:25;;;;;;;13.63;3.28;;;8.80;99.90;;;;;;5072614;28;20035;-68
2022/04/09 08:34:52;;;;;;;9.55;3.05;;;8.70;99.90;;;;;;5072649;28;20093;-68
2022/04/09 08:37:18;;;;;;;12.52;3.33;;;8.00;99.90;;;;;;5072730;28;20070;-68
2022/04/09 08:39:43;;;;;;;13.25;3.22;;;7.90;99.90;;;;;;5071536;28;20017;-69
2022/04/09 08:42:11;;;;;;;10.00;2.97;;;7.80;99.90;;;;;;5075089;28;20036;-68
2022/04/09 08:44:36;;;;;;;16.48;3.55;;;7.60;99.90;;;;;;5074890;28;20455;-68
2022/04/09 08:47:02;;;;;;;93.75;36.40;;;7.50;99.90;;;;;;5075020;28;20107;-68
2022/04/09 08:49:33;;;;;;;41.30;14.77;;;7.60;99.90;;;;;;5074858;28;20055;-68
2022/04/09 08:51:58;;;;;;;12.15;3.20;;;7.70;99.90;;;;;;5076026;28;20023;-68
2022/04/09 08:54:25;;;;;;;12.25;3.65;;;7.80;99.90;;;;;;5074643;28;20021;-68
2022/04/09 08:56:50;;;;;;;12.50;3.50;;;7.40;99.90;;;;;;5074552;28;20028;-68
2022/04/09 08:59:17;;;;;;;11.73;2.90;;;7.10;99.90;;;;;;5074656;28;20024;-69
2022/04/09 09:01:42;;;;;;;13.27;3.45;;;6.90;99.90;;;;;;5057795;28;20490;-68
2022/04/09 09:04:08;;;;;;;15.98;3.55;;;6.80;99.90;;;;;;5075858;28;20056;-69
2022/04/09 09:06:35;;;;;;;18.10;3.50;;;6.80;99.90;;;;;;5074504;28;20100;-69
2022/04/09 09:09:04;;;;;;;31.00;11.70;;;7.30;99.90;;;;;;5074398;28;20032;-69
2022/04/09 09:11:44;;;;;;;32.42;10.18;;;7.40;99.90;;;;;;5075606;28;20029;-69
2022/04/09 09:14:10;;;;;;;6.82;2.63;;;6.90;99.90;;;;;;5074576;28;20086;-69
2022/04/09 09:16:35;;;;;;;14.27;3.38;;;6.70;99.90;;;;;;5075474;28;20534;-69
2022/04/09 09:19:06;;;;;;;14.10;3.50;;;6.70;99.90;;;;;;5075262;28;20127;-69
2022/04/09 09:21:31;;;;;;;13.90;3.33;;;6.70;99.90;;;;;;5075324;28;20478;-70
2022/04/09 09:24:13;;;;;;;12.95;3.05;;;6.90;99.90;;;;;;5075398;28;20036;-69
2022/04/09 09:26:40;;;;;;;10.38;2.75;;;8.40;99.90;;;;;;5057346;28;20394;-70
2022/04/09 09:29:08;;;;;;;14.38;2.58;;;9.80;99.90;;;;;;5075215;28;20020;-70
2022/04/09 09:31:42;;;;;;;13.30;3.47;;;10.50;99.90;;;;;;5075204;28;20458;-69
2022/04/09 09:34:13;;;;;;;7.57;2.58;;;11.20;99.90;;;;;;5075406;28;20483;-70
2022/04/09 09:36:40;;;;;;;12.15;2.75;;;11.30;99.90;;;;;;5075261;28;20031;-70
2022/04/09 09:39:07;;;;;;;11.30;3.40;;;10.50;99.90;;;;;;5057209;28;20447;-70
2022/04/09 09:41:33;;;;;;;9.45;2.35;;;9.90;99.90;;;;;;5074921;28;20029;-70
2022/04/09 09:44:02;;;;;;;13.77;3.22;;;9.30;99.90;;;;;;5073800;28;20032;-70
2022/04/09 09:46:28;;;;;;;9.57;2.30;;;8.90;99.90;;;;;;5074919;28;20446;-69
2022/04/09 09:48:53;;;;;;;7.50;2.42;;;8.80;99.90;;;;;;5074817;28;20048;-70
2022/04/09 09:51:23;;;;;;;7.57;2.20;;;8.40;99.90;;;;;;5074552;28;20042;-69
2022/04/09 09:53:49;;;;;;;10.80;2.80;;;7.10;99.90;;;;;;5056859;28;20063;-69
2022/04/09 09:56:35;;;;;;;7.28;2.13;;;6.70;99.90;;;;;;5073419;28;20032;-70
2022/04/09 09:59:05;;;;;;;6.68;2.30;;;7.30;99.90;;;;;;5074636;28;20107;-70
2022/04/09 10:01:32;;;;;;;11.27;3.85;;;8.20;99.90;;;;;;5073421;28;20020;-70
2022/04/09 10:03:59;;;;;;;17.95;10.00;;;9.40;99.90;;;;;;5073272;28;20047;-70
2022/04/09 10:06:24;;;;;;;14.13;7.20;;;10.40;99.90;;;;;;5073375;28;20024;-70
2022/04/09 10:08:50;;;;;;;6.25;1.90;;;11.20;99.90;;;;;;5056411;28;20024;-70
2022/04/09 10:11:17;;;;;;;3.47;1.40;;;11.90;99.90;;;;;;5073250;28;20028;-70
2022/04/09 10:13:47;;;;;;;4.18;1.52;;;11.00;99.90;;;;;;5073200;28;20534;-70
2022/04/09 10:16:18;;;;;;;4.25;1.25;;;10.80;99.90;;;;;;5074432;28;20027;-70
2022/04/09 10:18:47;;;;;;;4.57;1.30;;;11.10;99.90;;;;;;5074106;28;20024;-70
2022/04/09 10:21:13;;;;;;;5.93;1.70;;;11.70;99.90;;;;;;5074271;28;20082;-70
2022/04/09 10:23:40;;;;;;;7.05;3.03;;;11.80;99.90;;;;;;5073035;28;20028;-70
2022/04/09 10:26:06;;;;;;;4.20;1.33;;;10.90;99.90;;;;;;5074095;28;20099;-69
2022/04/09 10:28:38;;;;;;;7.03;1.70;;;9.70;99.90;;;;;;5056129;28;20052;-70
2022/04/09 10:34:02;;;;;;;8.80;3.67;;;7.80;99.90;;;;;;5070760;28;20130;-69
2022/04/09 10:39:38;;;;;;;5.28;2.17;;;7.60;99.90;;;;;;5111075;27;20355;-68
2022/04/09 10:42:05;;;;;;;8.80;2.28;;;7.30;99.90;;;;;;5094452;28;20509;-69
2022/04/09 10:44:51;;;;;;;6.25;1.83;;;8.60;99.90;;;;;;5109727;28;20478;-69
2022/04/09 10:47:18;;;;;;;4.28;2.67;;;9.60;99.90;;;;;;5110974;28;20090;-69
2022/04/09 10:52:41;;;;;;;5.88;2.30;;;9.10;99.90;;;;;;5111224;27;20305;-69
2022/04/09 10:57:58;;;;;;;9.75;2.75;;;8.40;99.90;;;;;;5111122;27;20355;-71
2022/04/09 11:00:29;;;;;;;5.32;1.83;;;8.80;99.90;;;;;;5109762;28;20064;-68
2022/04/09 11:03:30;;;;;;;4.35;1.85;;;8.40;99.90;;;;;;5110974;28;20042;-69
2022/04/09 11:06:40;;;;;;;13.63;8.38;;;8.20;99.90;;;;;;5109613;28;20030;-69
2022/04/09 11:09:06;;;;;;;13.13;8.02;;;7.70;99.90;;;;;;5109523;28;20028;-70
2022/04/09 11:11:32;;;;;;;6.40;3.53;;;7.40;99.90;;;;;;5092527;28;20355;-69
2022/04/09 11:13:57;;;;;;;3.75;2.42;;;6.70;99.90;;;;;;5109636;28;20031;-70
2022/04/09 11:16:24;;;;;;;10.02;8.52;;;6.60;99.90;;;;;;5092348;28;20024;-69
2022/04/09 11:18:49;;;;;;;3.13;1.08;;;6.70;99.90;;;;;;5109589;28;20437;-69
2022/04/09 11:21:15;;;;;;;1.85;1.00;;;6.50;99.90;;;;;;5110602;28;20020;-69
2022/04/09 11:23:44;;;;;;;1.38;0.80;;;7.10;99.90;;;;;;5110627;28;20019;-69
2022/04/09 11:26:16;;;;;;;2.28;0.80;;;7.90;99.90;;;;;;5110609;28;20024;-70
2022/04/09 11:28:42;;;;;;;2.17;0.90;;;8.30;99.90;;;;;;5110849;28;20477;-69
2022/04/09 11:31:08;;;;;;;1.58;0.82;;;8.00;99.90;;;;;;5110425;28;20032;-70
2022/04/09 11:33:33;;;;;;;2.25;1.02;;;8.00;99.90;;;;;;5092240;28;20027;-70
2022/04/09 11:36:00;;;;;;;8.35;4.13;;;8.40;99.90;;;;;;5109065;28;20494;-69
2022/04/09 11:38:27;;;;;;;6.68;1.80;;;8.20;99.90;;;;;;5109040;28;20020;-70
2022/04/09 11:40:54;;;;;;;6.82;1.85;;;8.00;99.90;;;;;;5109068;28;20589;-69
2022/04/09 11:43:20;;;;;;;2.83;1.63;;;8.20;99.90;;;;;;5092033;28;20031;-70
2022/04/09 11:45:46;;;;;;;5.00;1.65;;;8.60;99.90;;;;;;5109077;28;20028;-70
2022/04/09 11:48:20;;;;;;;5.63;1.40;;;8.80;99.90;;;;;;5110250;28;20543;-70
2022/04/09 11:50:47;;;;;;;5.60;1.73;;;9.30;99.90;;;;;;5092272;28;20028;-69
2022/04/09 11:55:59;;;;;;;3.88;1.60;;;9.10;99.90;;;;;;5111050;27;20317;-70
2022/04/09 11:58:34;;;;;;;8.98;2.20;;;9.60;99.90;;;;;;5092948;28;20489;-69
2022/04/09 12:01:01;;;;;;;4.85;2.35;;;9.30;99.90;;;;;;5109854;28;20476;-69
2022/04/09 12:03:27;;;;;;;7.55;2.60;;;9.60;99.90;;;;;;5092632;28;20039;-69
2022/04/09 12:05:53;;;;;;;5.05;2.30;;;9.00;99.90;;;;;;5110845;28;20048;-71
2022/04/09 12:08:23;;;;;;;7.18;2.40;;;7.60;99.90;;;;;;5110899;28;20070;-70
2022/04/09 12:11:11;;;;;;;4.20;2.10;;;6.70;99.90;;;;;;5110914;28;20465;-70
2022/04/09 12:13:42;;;;;;;5.38;1.52;;;5.80;99.90;;;;;;5109414;28;20073;-71
2022/04/09 12:18:48;;;;;;;3.40;1.65;;;5.20;99.90;;;;;;5090866;28;20406;-70
2022/04/09 12:21:22;;;;;;;6.13;1.70;;;4.60;99.90;;;;;;5089647;28;20020;-70
2022/04/09 12:24:12;;;;;;;4.45;1.50;;;4.60;99.90;;;;;;5089522;28;20544;-70
2022/04/09 12:26:39;;;;;;;4.57;1.40;;;4.60;99.90;;;;;;5089479;28;20016;-70
2022/04/09 12:31:48;;;;;;;56.67;21.77;;;4.60;99.90;;;;;;5111217;27;20355;-70
2022/04/09 12:34:14;;;;;;;134.93;46.45;;;5.00;99.90;;;;;;5109710;28;20020;-69
2022/04/09 12:36:59;;;;;;;61.80;27.42;;;5.40;99.90;;;;;;5109832;28;20016;-69
2022/04/09 12:39:28;;;;;;;44.28;19.00;;;5.60;99.90;;;;;;5111034;28;20024;-69
2022/04/09 12:41:54;;;;;;;4.68;2.00;;;5.70;99.90;;;;;;5110899;28;20085;-70
2022/04/09 12:44:29;;;;;;;10.38;2.97;;;6.30;99.90;;;;;;5109646;28;20012;-69
2022/04/09 12:46:55;;;;;;;5.72;2.00;;;6.70;99.90;;;;;;5109584;28;20039;-69
2022/04/09 12:49:29;;;;;;;6.72;2.40;;;6.90;99.90;;;;;;5109518;28;20030;-70
2022/04/09 12:51:57;;;;;;;5.57;2.80;;;7.30;99.90;;;;;;5109570;28;20482;-69
2022/04/09 12:54:23;;;;;;;5.80;2.63;;;7.50;99.90;;;;;;5092671;28;20115;-70
2022/04/09 12:56:51;;;;;;;5.43;1.80;;;7.80;99.90;;;;;;5092428;28;20115;-70
2022/04/09 12:59:18;;;;;;;3.22;1.50;;;8.00;99.90;;;;;;5092395;28;20393;-70
2022/04/09 13:01:44;;;;;;;4.15;1.30;;;7.90;99.90;;;;;;5109454;28;20051;-71
2022/04/09 13:04:10;;;;;;;6.43;1.33;;;7.80;99.90;;;;;;5109261;28;20069;-69
2022/04/09 13:06:38;;;;;;;2.92;1.17;;;7.30;99.90;;;;;;5109242;28;20110;-70